LEXJ Información de aeropuertos

Información de pistas
Pista 11 Longitud 7612 ft Ancho 148 ft
Elevación 11 ft Umbral 0 ft Rumbo 110
Pista 29 Longitud 7612 ft Ancho 148 ft
Elevación 12 ft Umbral 0 ft Rumbo 290
Frecuencias
Tipo APP Nombre APP Frequencia 118.375 MHZ
Tipo GND Nombre GND Frequencia 121.7 MHZ
Tipo TWR Nombre TWR Frequencia 118.1 MHZ
Radioayudas
Tipo NDB Nombre Santander Frequencia 416 KHZ
Tipo VOR-DME Nombre Santander Frequencia 115300 KHZ
Información meteorológica y NOTAM
ADDS - METARS form results

(2210 UTC 10 August 2020)
Data provider http://aviationweather.gov/metar/data/
 
METAR text: LEXJ 102200Z AUTO VRB02KT 5000 BR OVC022 21/20 Q1014
Conditions at: LEXJ (SANTANDER/PARAYA, ES) observed 2200 UTC 10 August 2020
Temperature: 21.0°C (70°F)
Dewpoint: 20.0°C (68°F) [RH = 94%]
Pressure (altimeter): 29.94 inches Hg (1014.0 mb)
Winds: variable direction winds at 2 MPH (2 knots; 1.0 m/s)
Visibility: 3 miles ( 5 km)
Ceiling: 2200 feet AGL
Clouds: overcast cloud deck at 2200 feet AGL
Weather: BR  (mist)

METAR text: LEXJ 102130Z AUTO 23002KT 6000 OVC022 21/20 Q1014
Conditions at: LEXJ (SANTANDER/PARAYA, ES) observed 2130 UTC 10 August 2020
Temperature: 21.0°C (70°F)
Dewpoint: 20.0°C (68°F) [RH = 94%]
Pressure (altimeter): 29.94 inches Hg (1014.0 mb)
Winds: from the SW (230 degrees) at 2 MPH (2 knots; 1.0 m/s)
Visibility: 4 miles ( 6 km)
Ceiling: 2200 feet AGL
Clouds: overcast cloud deck at 2200 feet AGL
Weather: no significant weather observed at this time

Forecast for: LEXJ (SANTANDER/PARAYA, ES)
Text: TAF LEXJ 102000Z 1021/1121 VRB04KT 9999 FEW015 TX27/1113Z TN17/1105Z
Forecast period: 2100 UTC 10 August 2020 to 2100 UTC 11 August 2020
Forecast type: FROM: standard forecast or significant change
Winds: variable direction winds at 5 MPH (4 knots; 2.1 m/s)
Visibility: 6 or more miles (10+ km)
Ceiling: at least 12,000 feet AGL
Clouds: few clouds at 1500 feet AGL
Weather: no significant weather forecast for this period
Text: PROB30
Forecast period: 0000 to 0700 UTC 11 August 2020
Forecast type: TEMPORARY: The following changes expected for less than half the time period
Visibility: 1.86 miles (2.99 km)
Ceiling: 1000 feet AGL
Clouds: broken clouds at 1000 feet AGL
Weather: BR  (mist)
Text: TEMPO 1100/1107 3000 BR BKN010
Forecast period: 1400 to 1900 UTC 11 August 2020
Forecast type: TEMPORARY: The following changes expected for less than half the time period
Winds: variable direction winds at 17 MPH (15 knots; 7.7 m/s)
gusting to 29 MPH (25 knots; 12.9 m/s)
Visibility: 1.86 miles (2.99 km)
Ceiling: at least 12,000 feet AGL
Clouds: scattered clouds at 2500 feet AGL
scattered clouds at 3000 feet AGL
Weather: TS +SHRA  (thunderstorm, heavy rain showers)
Text: TEMPO 1114/1119 VRB15G25KT 3000 TS +SHRA SCT025TCU SCT030CB
Forecast period: 1800 to 2100 UTC 11 August 2020
Forecast type: TEMPORARY: The following changes expected for less than half the time period
Visibility: 1.86 miles (2.99 km)
Ceiling: unknown
Clouds: missing
Weather: BR  (mist)